createdAt,value
2022-10-05T00:01:45.637Z,56.47
2022-10-05T00:04:21.659Z,62.97
2022-10-05T00:06:56.015Z,59.72
2022-10-05T00:09:23.538Z,51.10
2022-10-05T00:11:51.193Z,46.78
2022-10-05T00:14:21.722Z,57.17
2022-10-05T00:19:23.649Z,46.13
2022-10-05T00:21:50.380Z,56.33
2022-10-05T00:24:20.489Z,43.63
2022-10-05T00:26:47.473Z,48.95
2022-10-05T00:29:22.350Z,51.40
2022-10-05T00:31:50.256Z,63.55
2022-10-05T00:34:18.054Z,56.33
2022-10-05T00:36:46.081Z,51.80
2022-10-05T00:39:13.016Z,52.05
2022-10-05T00:41:47.444Z,53.55
2022-10-05T00:44:40.259Z,51.33
2022-10-05T00:47:36.050Z,53.95
2022-10-05T00:50:12.169Z,52.20
2022-10-05T00:53:03.713Z,45.85
2022-10-05T00:55:54.934Z,47.25
2022-10-05T00:58:54.916Z,49.65
2022-10-05T01:01:36.716Z,52.33
2022-10-05T01:04:54.397Z,57.85
2022-10-05T01:07:42.412Z,47.55
2022-10-05T01:10:21.661Z,51.28
2022-10-05T01:13:27.304Z,53.67
2022-10-05T01:16:31.915Z,51.10
2022-10-05T01:19:01.653Z,45.72
2022-10-05T01:21:36.446Z,46.00
2022-10-05T01:24:29.148Z,52.88
2022-10-05T01:27:33.649Z,48.88
2022-10-05T01:30:12.907Z,45.97
2022-10-05T01:33:01.352Z,49.90
2022-10-05T01:35:50.720Z,53.17
2022-10-05T01:38:42.492Z,44.83
2022-10-05T01:41:16.708Z,71.07
2022-10-05T01:43:46.402Z,54.85
2022-10-05T01:46:39.499Z,51.10
2022-10-05T01:49:30.420Z,60.38
2022-10-05T01:52:31.099Z,62.25
2022-10-05T01:57:49.790Z,68.80
2022-10-05T02:00:20.343Z,64.03
2022-10-05T02:05:33.215Z,81.00
2022-10-05T02:08:14.465Z,70.43
2022-10-05T02:11:03.577Z,74.75
2022-10-05T02:13:36.664Z,76.40
2022-10-05T02:16:10.647Z,68.30
2022-10-05T02:18:46.972Z,65.88
2022-10-05T02:21:13.776Z,60.95
2022-10-05T02:23:42.583Z,80.30
2022-10-05T02:26:12.429Z,75.60
2022-10-05T02:28:49.025Z,76.25
2022-10-05T02:31:19.525Z,68.38
2022-10-05T02:36:19.845Z,74.10
2022-10-05T02:38:59.324Z,61.65
2022-10-05T02:41:38.460Z,73.00
2022-10-05T02:44:29.853Z,51.13
2022-10-05T02:47:15.418Z,50.35
2022-10-05T02:50:13.738Z,52.13
2022-10-05T02:53:03.141Z,48.92
2022-10-05T02:55:42.044Z,56.22
2022-10-05T02:58:21.239Z,55.40
2022-10-05T03:01:14.350Z,46.03
2022-10-05T03:03:56.376Z,42.97
2022-10-05T03:06:29.016Z,53.03
2022-10-05T03:09:04.048Z,52.75
2022-10-05T03:11:48.607Z,60.97
2022-10-05T03:14:40.670Z,45.55
2022-10-05T03:17:15.559Z,53.63
2022-10-05T03:19:45.311Z,46.85
2022-10-05T03:22:21.073Z,52.20
2022-10-05T03:25:14.849Z,83.53
2022-10-05T03:27:51.824Z,72.30
2022-10-05T03:30:21.782Z,72.85
2022-10-05T03:32:58.579Z,63.22
2022-10-05T03:35:31.219Z,57.03
2022-10-05T03:38:11.002Z,62.20
2022-10-05T03:40:49.617Z,64.60
2022-10-05T03:43:46.579Z,55.80
2022-10-05T03:46:36.863Z,53.72
2022-10-05T03:49:22.684Z,68.95
2022-10-05T03:51:59.890Z,64.00
2022-10-05T03:54:33.406Z,60.80
2022-10-05T03:57:21.809Z,54.60
2022-10-05T04:00:13.896Z,56.53
2022-10-05T04:02:47.886Z,50.88
2022-10-05T04:05:19.029Z,57.58
2022-10-05T04:07:47.769Z,58.40
2022-10-05T04:10:37.584Z,49.22
2022-10-05T04:13:22.159Z,48.67
2022-10-05T04:16:01.629Z,49.95
2022-10-05T04:18:42.229Z,50.60
2022-10-05T04:24:09.612Z,49.17
2022-10-05T04:26:50.655Z,57.30
2022-10-05T04:29:39.070Z,59.50
2022-10-05T04:32:06.095Z,58.55
2022-10-05T04:35:14.519Z,56.17
2022-10-05T04:38:02.716Z,70.30
2022-10-05T04:40:48.328Z,72.60
2022-10-05T04:43:29.326Z,57.60
2022-10-05T04:46:16.824Z,59.47
2022-10-05T04:49:04.732Z,53.80
2022-10-05T04:51:52.071Z,56.35
2022-10-05T04:54:56.334Z,52.75
2022-10-05T04:57:49.076Z,48.03
2022-10-05T05:00:24.615Z,46.65
2022-10-05T05:03:33.932Z,51.38
2022-10-05T05:06:28.431Z,48.05
2022-10-05T05:09:22.550Z,49.78
2022-10-05T05:12:10.865Z,53.67
2022-10-05T05:15:18.616Z,43.38
2022-10-05T05:18:04.896Z,44.33
2022-10-05T05:20:41.961Z,42.58
2022-10-05T05:23:47.243Z,36.47
2022-10-05T05:26:38.759Z,37.35
2022-10-05T05:29:30.257Z,37.72
2022-10-05T05:32:25.175Z,42.05
2022-10-05T05:35:16.640Z,37.85
2022-10-05T05:37:58.317Z,39.95
2022-10-05T05:40:36.191Z,43.75
2022-10-05T05:43:10.502Z,46.13
2022-10-05T05:45:50.008Z,61.75
2022-10-05T05:48:24.272Z,50.00
2022-10-05T05:51:08.454Z,45.67
2022-10-05T05:53:43.899Z,58.15
2022-10-05T05:56:11.854Z,46.25
2022-10-05T05:58:52.019Z,46.30
2022-10-05T06:01:32.254Z,42.60
2022-10-05T06:04:14.746Z,45.28
2022-10-05T06:06:47.877Z,50.22
2022-10-05T06:09:33.617Z,44.05
2022-10-05T06:12:12.595Z,39.03
2022-10-05T06:14:42.612Z,39.33
2022-10-05T06:17:35.007Z,48.15
2022-10-05T06:20:08.000Z,47.47
2022-10-05T06:22:38.708Z,45.30
2022-10-05T06:25:17.308Z,42.72
2022-10-05T06:28:12.433Z,42.13
2022-10-05T06:31:04.543Z,43.75
2022-10-05T06:33:52.242Z,39.47
2022-10-05T06:36:33.069Z,39.65
2022-10-05T06:39:14.720Z,42.45
2022-10-05T06:41:47.437Z,41.40
2022-10-05T06:44:54.012Z,46.50
2022-10-05T06:47:37.974Z,39.83
2022-10-05T06:50:29.482Z,41.83
2022-10-05T06:53:14.738Z,41.45
2022-10-05T06:56:07.326Z,48.65
2022-10-05T06:59:17.447Z,45.53
2022-10-05T07:02:09.362Z,40.15
2022-10-05T07:04:53.879Z,42.88
2022-10-05T07:07:54.992Z,36.97
2022-10-05T07:10:32.581Z,37.53
2022-10-05T07:13:25.308Z,39.70
2022-10-05T07:16:03.265Z,45.03
2022-10-05T07:19:02.626Z,47.05
2022-10-05T07:21:43.356Z,46.55
2022-10-05T07:24:22.615Z,40.75
2022-10-05T07:27:17.840Z,40.17
2022-10-05T07:29:56.746Z,47.53
2022-10-05T07:32:34.579Z,43.38
2022-10-05T07:35:44.874Z,41.55
2022-10-05T07:38:35.192Z,37.00
2022-10-05T07:41:06.433Z,44.17
2022-10-05T07:44:01.424Z,36.97
2022-10-05T07:46:37.692Z,39.97
2022-10-05T07:49:17.624Z,36.30
2022-10-05T07:52:11.462Z,33.60
2022-10-05T07:55:03.201Z,38.15
2022-10-05T07:58:14.773Z,35.58
2022-10-05T08:00:59.434Z,38.15
2022-10-05T08:03:36.083Z,34.95
2022-10-05T08:06:05.622Z,30.42
2022-10-05T08:08:51.065Z,31.53
2022-10-05T08:11:27.112Z,35.97
2022-10-05T08:14:00.676Z,34.72
2022-10-05T08:16:32.788Z,35.42
2022-10-05T08:19:40.453Z,33.10
2022-10-05T08:22:12.668Z,25.88
2022-10-05T08:24:46.173Z,26.77
2022-10-05T08:27:23.670Z,25.63
2022-10-05T08:30:01.544Z,27.08
2022-10-05T08:32:51.112Z,24.90
2022-10-05T08:35:25.173Z,26.00
2022-10-05T08:37:52.686Z,26.38
2022-10-05T08:40:21.375Z,25.35
2022-10-05T08:43:21.538Z,26.45
2022-10-05T08:46:19.013Z,27.48
2022-10-05T08:48:51.572Z,30.52
2022-10-05T08:51:53.374Z,23.23
2022-10-05T08:54:34.787Z,29.77
2022-10-05T08:57:32.846Z,26.67
2022-10-05T09:00:05.456Z,27.13
2022-10-05T09:03:00.292Z,19.02
2022-10-05T09:05:36.073Z,27.60
2022-10-05T09:08:24.569Z,29.50
2022-10-05T09:11:00.077Z,29.10
2022-10-05T09:13:36.809Z,27.52
2022-10-05T09:16:06.229Z,20.10
2022-10-05T09:18:57.742Z,25.87
2022-10-05T20:45:25.125Z,36.78
2022-10-05T20:48:14.223Z,32.65
2022-10-05T20:51:03.430Z,37.30
2022-10-05T20:53:29.001Z,39.15
2022-10-05T20:56:10.370Z,32.60
2022-10-05T20:58:38.672Z,35.30
2022-10-05T21:01:39.806Z,33.47
2022-10-05T21:04:16.177Z,31.23
2022-10-05T21:06:43.860Z,35.00
2022-10-05T21:09:14.725Z,35.25
2022-10-05T21:11:42.226Z,41.28
2022-10-05T21:14:09.835Z,36.70
2022-10-05T21:16:38.055Z,40.78
2022-10-05T21:19:25.696Z,33.45
2022-10-05T21:21:52.362Z,35.80
2022-10-05T21:24:19.034Z,37.15
2022-10-05T21:26:45.767Z,34.63
2022-10-05T21:29:13.219Z,36.20
2022-10-05T21:31:40.479Z,43.30
2022-10-05T21:34:08.145Z,36.58
2022-10-05T21:36:35.488Z,45.03
2022-10-05T21:39:02.280Z,39.80
2022-10-05T21:41:28.977Z,33.72
2022-10-05T21:43:55.762Z,37.65
2022-10-05T21:46:26.693Z,36.70
2022-10-05T21:48:55.171Z,32.72
2022-10-05T21:51:25.327Z,33.10
2022-10-05T21:53:58.051Z,30.48
2022-10-05T21:56:31.095Z,30.70
2022-10-05T21:58:58.460Z,31.67
2022-10-05T22:01:25.249Z,33.40
2022-10-05T22:03:51.948Z,37.95
2022-10-05T22:06:18.638Z,38.78
2022-10-05T22:08:46.346Z,37.78
2022-10-05T22:11:18.000Z,33.08
2022-10-05T22:13:49.943Z,36.05
2022-10-05T22:16:19.798Z,36.83
2022-10-05T22:18:47.322Z,34.70
2022-10-05T22:21:15.167Z,36.53
2022-10-05T22:23:45.284Z,35.33
2022-10-05T22:26:16.665Z,39.90
2022-10-05T22:28:44.109Z,42.05
2022-10-05T22:31:13.155Z,40.80
2022-10-05T22:33:41.029Z,35.55
2022-10-05T22:36:09.162Z,40.35
2022-10-05T22:38:35.983Z,36.05
2022-10-05T22:41:02.862Z,38.33
2022-10-05T22:43:29.849Z,38.90
2022-10-05T22:45:56.634Z,39.20
2022-10-05T22:48:23.436Z,39.95
2022-10-05T22:50:50.255Z,39.58
2022-10-05T22:53:17.003Z,39.10
2022-10-05T22:55:43.678Z,40.10
2022-10-05T22:58:10.535Z,38.60
2022-10-05T23:00:56.821Z,38.60
2022-10-05T23:03:24.251Z,36.50
2022-10-05T23:05:57.561Z,40.08
2022-10-05T23:08:24.733Z,42.42
2022-10-05T23:10:52.592Z,36.28
2022-10-05T23:13:19.280Z,37.00
2022-10-05T23:15:46.079Z,38.92
2022-10-05T23:18:12.719Z,35.58
2022-10-05T23:20:40.186Z,32.80
2022-10-05T23:23:06.994Z,36.92
2022-10-05T23:25:33.760Z,35.25
2022-10-05T23:28:02.538Z,40.90
2022-10-05T23:30:29.671Z,36.22
2022-10-05T23:32:56.380Z,34.95
2022-10-05T23:35:23.293Z,34.40
2022-10-05T23:37:51.614Z,32.80
2022-10-05T23:40:18.267Z,31.40
2022-10-05T23:42:45.016Z,34.95
2022-10-05T23:45:12.586Z,33.63
2022-10-05T23:47:40.733Z,32.17
2022-10-05T23:50:10.303Z,30.92
2022-10-05T23:52:37.365Z,31.77
2022-10-05T23:55:05.482Z,35.78
2022-10-05T23:57:32.935Z,29.13
